Cridersville, Ohio
Current Conditions -  °F | °C
As of 10:53 AM on Wednesday 26 Nov 2014 (Local Time) from KAOH Reporting Station
Overcast Overcast  
Wind Chill: 31°   Ceiling: 1600
Heat Index: 31°   Visibility: 10mi
Dew Point: 22°   Wind: 3mph
Humidity: 69%   Direction: 120°ESE
Pressure: 30.13"   Gusts: NA
Location:  40.6673°N, 84.1324°W
Report Text: KAOH 261553Z AUTO 12003KT 10SM OVC016 M01/M06 A3013 RMK AO2 SLP212 T10061056
Loading
Personal Weather Stations






























Interactive Weather Map New forecast layout! Learn more

10-Day Weather Forecast

Advertisements
Track Severe Weather on mobile